San Leon, Texas
Current Conditions -  °F | °C
As of 11:50 AM on Friday 21 Nov 2014 (Local Time) from KEFD Reporting Station
Light Rain Light Rain  
Wind Chill: 64°   Ceiling: 800
Heat Index: 64°   Visibility: 3mi
Dew Point: 64°   Wind: 6mph
Humidity: 100%   Direction: 100°E
Pressure: 30.16"   Gusts: NA
Location:  29.4598°N, 95.0288°W
Report Text: KEFD 211750Z 10005KT 3SM -RA BKN008 OVC020 18/18 A3016
Loading
Personal Weather Stations






























Interactive Weather Map New forecast layout! Learn more

10-Day Weather Forecast

Advertisements
Track Severe Weather on mobile